createdAt,value
2019-02-15T00:02:23.607Z,6.65
2019-02-15T00:04:55.555Z,6.61
2019-02-15T00:07:27.489Z,6.60
2019-02-15T00:09:59.417Z,6.58
2019-02-15T00:12:31.354Z,6.59
2019-02-15T00:15:03.335Z,6.56
2019-02-15T00:17:52.173Z,6.54
2019-02-15T00:20:28.430Z,6.50
2019-02-15T00:23:00.342Z,6.47
2019-02-15T00:25:32.271Z,6.42
2019-02-15T00:28:04.572Z,6.38
2019-02-15T00:30:36.566Z,6.35
2019-02-15T00:33:08.766Z,6.27
2019-02-15T00:35:40.766Z,6.20
2019-02-15T00:38:12.698Z,6.16
2019-02-15T00:40:44.620Z,6.12
2019-02-15T00:43:22.142Z,6.09
2019-02-15T00:45:52.172Z,6.07
2019-02-15T00:48:25.746Z,6.07
2019-02-15T00:51:15.648Z,6.10
2019-02-15T00:53:49.582Z,6.11
2019-02-15T00:56:23.138Z,6.16
2019-02-15T00:59:12.062Z,6.21
2019-02-15T01:01:51.242Z,6.23
2019-02-15T01:04:24.813Z,6.26
2019-02-15T01:07:04.396Z,6.30
2019-02-15T01:09:40.880Z,6.34
2019-02-15T01:12:18.094Z,6.37
2019-02-15T01:14:50.175Z,6.41
2019-02-15T01:17:22.100Z,6.46
2019-02-15T01:19:54.046Z,6.52
2019-02-15T01:22:25.969Z,6.57
2019-02-15T01:24:58.948Z,6.63
2019-02-15T01:27:35.582Z,6.67
2019-02-15T01:30:11.114Z,6.72
2019-02-15T01:32:44.682Z,6.76
2019-02-15T01:35:20.925Z,6.78
2019-02-15T01:37:55.023Z,6.80
2019-02-15T01:40:34.718Z,6.83
2019-02-15T01:43:08.361Z,6.83
2019-02-15T01:45:42.467Z,6.86
2019-02-15T01:48:14.399Z,6.88
2019-02-15T01:50:46.712Z,6.90
2019-02-15T01:53:18.800Z,6.91
2019-02-15T01:55:50.911Z,6.93
2019-02-15T01:58:22.911Z,6.94
2019-02-15T02:00:54.940Z,6.92
2019-02-15T02:03:27.248Z,6.92
2019-02-15T02:05:59.619Z,6.90
2019-02-15T02:08:31.940Z,6.91
2019-02-15T02:11:03.870Z,6.91
2019-02-15T02:13:35.945Z,6.91
2019-02-15T02:16:07.924Z,6.92
2019-02-15T02:18:40.145Z,6.91
2019-02-15T02:21:12.167Z,6.91
2019-02-15T02:23:44.123Z,6.90
2019-02-15T02:26:16.049Z,6.88
2019-02-15T02:28:48.045Z,6.86
2019-02-15T02:31:20.061Z,6.81
2019-02-15T02:33:51.990Z,6.79
2019-02-15T02:36:34.145Z,6.75
2019-02-15T02:39:06.344Z,6.70
2019-02-15T02:41:38.271Z,6.65
2019-02-15T02:44:10.207Z,6.60
2019-02-15T02:46:42.145Z,6.56
2019-02-15T02:49:14.081Z,6.52
2019-02-15T02:51:46.052Z,6.48
2019-02-15T02:54:18.245Z,6.45
2019-02-15T02:56:50.264Z,6.43
2019-02-15T02:59:22.203Z,6.39
2019-02-15T03:01:54.172Z,6.33
2019-02-15T03:04:26.100Z,6.27
2019-02-15T03:06:58.108Z,6.20
2019-02-15T03:09:30.059Z,6.14
2019-02-15T03:12:01.989Z,6.09
2019-02-15T03:14:33.926Z,6.03
2019-02-15T03:17:05.845Z,5.97
2019-02-15T03:19:37.787Z,5.90
2019-02-15T03:22:09.791Z,5.82
2019-02-15T03:24:41.789Z,5.78
2019-02-15T03:27:13.712Z,5.72
2019-02-15T03:29:46.326Z,5.70
2019-02-15T03:32:18.326Z,5.66
2019-02-15T03:34:50.278Z,5.64
2019-02-15T03:37:27.103Z,5.61
2019-02-15T03:40:01.027Z,5.57
2019-02-15T03:42:33.009Z,5.53
2019-02-15T03:45:07.862Z,5.50
2019-02-15T03:47:39.790Z,5.51
2019-02-15T03:50:11.807Z,5.48
2019-02-15T03:52:43.732Z,5.44
2019-02-15T03:55:15.667Z,5.39
2019-02-15T03:57:47.613Z,5.35
2019-02-15T04:00:19.893Z,5.35
2019-02-15T04:02:51.894Z,5.34
2019-02-15T04:05:23.823Z,5.34
2019-02-15T04:07:55.787Z,5.33
2019-02-15T04:10:27.700Z,5.33
2019-02-15T04:12:59.628Z,5.32
2019-02-15T04:15:31.555Z,5.32
2019-02-15T04:18:03.553Z,5.31
2019-02-15T04:20:35.954Z,5.31
2019-02-15T04:23:08.295Z,5.31
2019-02-15T04:25:40.310Z,5.32
2019-02-15T04:28:12.231Z,5.32
2019-02-15T04:30:44.150Z,5.31
2019-02-15T04:33:16.083Z,5.28
2019-02-15T04:35:48.005Z,5.26
2019-02-15T04:38:19.958Z,5.25
2019-02-15T04:40:51.884Z,5.25
2019-02-15T04:43:23.818Z,5.24
2019-02-15T04:45:55.752Z,5.23
2019-02-15T04:48:28.045Z,5.21
2019-02-15T04:50:59.954Z,5.21
2019-02-15T04:53:32.682Z,5.21
2019-02-15T04:56:04.699Z,5.22
2019-02-15T04:58:36.698Z,5.21
2019-02-15T05:01:08.785Z,5.21
2019-02-15T05:03:40.905Z,5.19
2019-02-15T05:06:12.820Z,5.18
2019-02-15T05:08:44.758Z,5.17
2019-02-15T05:11:16.744Z,5.15
2019-02-15T05:13:48.867Z,5.13
2019-02-15T05:16:20.871Z,5.11
2019-02-15T05:18:52.785Z,5.09
2019-02-15T05:21:24.723Z,5.09
2019-02-15T05:23:56.815Z,5.08
2019-02-15T05:26:29.213Z,5.09
2019-02-15T05:29:01.615Z,5.08
2019-02-15T05:31:34.010Z,5.06
2019-02-15T05:34:06.511Z,5.07
2019-02-15T05:36:38.596Z,5.06
2019-02-15T05:39:10.598Z,5.05
2019-02-15T05:41:42.522Z,5.05
2019-02-15T05:44:16.299Z,5.05
2019-02-15T05:46:48.198Z,5.04
2019-02-15T05:49:20.594Z,5.02
2019-02-15T05:51:52.525Z,5.02
2019-02-15T05:54:24.448Z,5.00
2019-02-15T05:56:56.463Z,4.97
2019-02-15T05:59:28.457Z,4.95
2019-02-15T06:02:00.404Z,4.96
2019-02-15T06:04:32.510Z,4.95
2019-02-15T06:07:04.448Z,4.97
2019-02-15T06:09:36.367Z,5.00
2019-02-15T06:12:08.674Z,5.03
2019-02-15T06:14:40.677Z,5.03
2019-02-15T06:17:12.648Z,5.05
2019-02-15T06:19:44.605Z,5.07
2019-02-15T06:22:16.532Z,5.09
2019-02-15T06:24:48.470Z,5.08
2019-02-15T06:27:20.464Z,5.07
2019-02-15T06:29:52.389Z,5.06
2019-02-15T06:32:24.585Z,5.06
2019-02-15T06:34:56.588Z,5.06
2019-02-15T06:37:28.592Z,5.08
2019-02-15T06:40:00.807Z,5.08
2019-02-15T06:42:32.879Z,5.06
2019-02-15T06:45:07.081Z,5.08
2019-02-15T06:47:39.011Z,5.07
2019-02-15T06:50:10.933Z,5.08
2019-02-15T06:52:43.042Z,5.09
2019-02-15T06:55:15.326Z,5.08
2019-02-15T06:57:47.594Z,4.83
2019-02-15T07:00:37.317Z,5.11
2019-02-15T07:03:22.899Z,5.12
2019-02-15T07:05:54.824Z,5.14
2019-02-15T07:08:27.095Z,5.18
2019-02-15T07:10:59.020Z,5.20
2019-02-15T07:13:30.953Z,5.21
2019-02-15T07:16:02.899Z,5.22
2019-02-15T07:18:34.848Z,5.21
2019-02-15T07:21:06.834Z,5.22
2019-02-15T07:23:39.081Z,5.22
2019-02-15T07:26:11.022Z,5.21
2019-02-15T07:28:42.943Z,5.24
2019-02-15T07:31:14.903Z,5.27
2019-02-15T07:33:46.852Z,5.30
2019-02-15T07:36:18.871Z,5.32
2019-02-15T07:38:51.181Z,5.35
2019-02-15T07:41:23.105Z,5.36
2019-02-15T07:43:55.320Z,5.40
2019-02-15T07:46:27.639Z,5.45
2019-02-15T07:48:59.561Z,5.50
2019-02-15T07:51:31.503Z,5.55
2019-02-15T07:54:03.442Z,5.61
2019-02-15T07:56:35.445Z,5.64
2019-02-15T07:59:08.209Z,5.68
2019-02-15T08:01:40.156Z,5.69
2019-02-15T08:04:12.187Z,5.69
2019-02-15T08:06:44.079Z,5.68
2019-02-15T08:09:16.021Z,5.70
2019-02-15T08:11:48.094Z,5.70
2019-02-15T08:14:19.994Z,5.70
2019-02-15T08:16:52.081Z,5.74
2019-02-15T08:19:24.049Z,5.79
2019-02-15T08:21:56.301Z,5.85
2019-02-15T08:24:30.409Z,5.91
2019-02-15T08:27:02.810Z,5.95
2019-02-15T08:29:35.069Z,6.01
2019-02-15T08:32:06.997Z,6.04
2019-02-15T08:34:39.288Z,6.10
2019-02-15T08:37:11.209Z,6.09
2019-02-15T08:39:43.179Z,6.19
2019-02-15T08:42:15.106Z,6.25
2019-02-15T08:44:47.039Z,6.30
2019-02-15T08:47:18.982Z,6.35
2019-02-15T08:49:51.871Z,6.36
2019-02-15T08:52:23.832Z,6.37
2019-02-15T08:54:55.757Z,6.38
2019-02-15T08:57:27.699Z,6.44
2019-02-15T08:59:59.625Z,6.50
2019-02-15T09:02:31.602Z,6.58
2019-02-15T09:05:03.523Z,6.67
2019-02-15T09:07:35.449Z,6.74
2019-02-15T09:10:13.314Z,6.81
2019-02-15T09:12:45.246Z,6.89
2019-02-15T09:15:23.163Z,6.97
2019-02-15T09:17:55.107Z,7.05
2019-02-15T09:20:27.061Z,7.13
2019-02-15T09:22:58.976Z,7.19
2019-02-15T09:25:31.099Z,7.27
2019-02-15T09:28:19.350Z,7.34
2019-02-15T09:30:52.010Z,7.39
2019-02-15T09:33:23.997Z,7.17
2019-02-15T09:35:56.500Z,7.42
2019-02-15T09:38:28.449Z,7.41
2019-02-15T09:41:00.395Z,7.40
2019-02-15T09:43:32.349Z,7.41
2019-02-15T09:46:04.425Z,7.41
2019-02-15T09:48:36.361Z,7.43
2019-02-15T09:51:08.490Z,7.45
2019-02-15T09:53:40.499Z,7.41
2019-02-15T09:56:12.699Z,7.53
2019-02-15T09:58:44.660Z,7.31
2019-02-15T10:01:16.843Z,7.62
2019-02-15T10:03:49.020Z,7.38
2019-02-15T10:06:21.152Z,7.63
2019-02-15T10:08:53.083Z,7.65
2019-02-15T10:11:25.130Z,7.69
2019-02-15T10:13:57.217Z,7.75
2019-02-15T10:16:31.391Z,7.51
2019-02-15T10:19:02.973Z,7.85
2019-02-15T10:21:35.630Z,7.89
2019-02-15T10:24:07.589Z,7.93
2019-02-15T10:26:39.833Z,7.95
2019-02-15T10:29:11.949Z,7.99
2019-02-15T10:31:44.194Z,8.06
2019-02-15T10:34:16.256Z,8.10
2019-02-15T10:36:49.173Z,7.91
2019-02-15T10:39:21.180Z,8.25
2019-02-15T10:41:54.173Z,8.26
2019-02-15T10:44:26.315Z,8.38
2019-02-15T10:46:58.364Z,8.45
2019-02-15T10:49:30.286Z,8.49
2019-02-15T10:52:02.257Z,8.56
2019-02-15T10:54:35.867Z,8.63
2019-02-15T10:57:08.310Z,8.70
2019-02-15T11:02:39.187Z,8.86
2019-02-15T11:05:11.556Z,8.95
2019-02-15T11:07:43.558Z,9.01
2019-02-15T11:10:15.540Z,9.07
2019-02-15T11:12:47.713Z,9.13
2019-02-15T11:15:19.713Z,9.15
2019-02-15T11:17:51.713Z,9.18
2019-02-15T11:20:23.724Z,9.22
2019-02-15T11:22:55.713Z,9.26
2019-02-15T11:25:27.682Z,9.31
2019-02-15T11:27:59.619Z,9.35
2019-02-15T11:30:31.548Z,9.38
2019-02-15T11:33:03.665Z,9.41
2019-02-15T11:35:35.626Z,9.43
2019-02-15T11:38:07.597Z,9.47
2019-02-15T11:40:39.627Z,9.52
2019-02-15T11:43:11.603Z,9.57
2019-02-15T11:45:43.564Z,9.61
2019-02-15T11:48:15.819Z,9.64
2019-02-15T11:50:47.757Z,9.67
2019-02-15T11:53:19.708Z,9.70
2019-02-15T11:55:51.631Z,9.71
2019-02-15T11:58:23.571Z,9.75
2019-02-15T12:00:56.070Z,9.78
2019-02-15T12:03:28.394Z,9.81
2019-02-15T12:06:00.693Z,9.81
2019-02-15T12:08:32.783Z,9.84
2019-02-15T12:11:04.799Z,9.88
2019-02-15T12:13:36.794Z,9.91
2019-02-15T12:16:08.749Z,9.95
2019-02-15T12:18:41.014Z,9.98
2019-02-15T12:21:13.814Z,10.01
2019-02-15T12:23:46.466Z,10.04
2019-02-15T12:26:18.995Z,10.07
2019-02-15T12:28:51.775Z,10.09
2019-02-15T12:31:23.978Z,10.14
2019-02-15T12:33:55.904Z,10.18
2019-02-15T12:36:28.053Z,10.21
2019-02-15T12:39:00.140Z,10.24
2019-02-15T12:41:34.024Z,10.27
2019-02-15T12:44:06.095Z,10.29
2019-02-15T12:46:38.460Z,10.34
2019-02-15T12:49:10.821Z,10.35
2019-02-15T12:51:42.857Z,10.36
2019-02-15T12:54:14.785Z,10.41
2019-02-15T12:56:46.744Z,10.41
2019-02-15T12:59:18.691Z,10.45
2019-02-15T13:01:50.653Z,10.47
2019-02-15T13:04:22.606Z,10.50
2019-02-15T13:06:54.753Z,10.52
2019-02-15T13:09:26.685Z,10.55
2019-02-15T13:11:58.635Z,10.58
2019-02-15T13:14:30.599Z,10.59
2019-02-15T13:17:02.556Z,10.61
2019-02-15T13:19:34.568Z,10.63
2019-02-15T13:22:07.314Z,10.66
2019-02-15T13:24:39.297Z,10.68
2019-02-15T13:27:12.726Z,10.69
2019-02-15T13:29:45.086Z,10.71
2019-02-15T13:32:17.090Z,10.73
2019-02-15T13:34:55.175Z,10.76
2019-02-15T13:37:27.431Z,10.78
2019-02-15T13:39:59.438Z,10.78
2019-02-15T13:42:31.508Z,10.79
2019-02-15T13:45:03.580Z,10.78
2019-02-15T13:47:35.620Z,10.78
2019-02-15T13:50:14.355Z,10.80
2019-02-15T13:52:46.431Z,10.79
2019-02-15T13:55:18.759Z,10.81
2019-02-15T13:57:50.759Z,10.83
2019-02-15T14:00:22.681Z,10.80
2019-02-15T14:02:54.707Z,10.86
2019-02-15T14:05:26.687Z,10.87
2019-02-15T14:07:58.631Z,10.89
2019-02-15T14:10:30.594Z,10.90
2019-02-15T14:13:02.637Z,10.90
2019-02-15T14:15:34.784Z,10.88
2019-02-15T14:18:06.721Z,10.89
2019-02-15T14:20:38.691Z,10.90
2019-02-15T14:23:10.731Z,10.91
2019-02-15T14:25:42.775Z,10.89
2019-02-15T14:28:14.715Z,10.87
2019-02-15T14:30:46.681Z,10.89
2019-02-15T14:33:18.958Z,10.88
2019-02-15T14:35:50.892Z,10.85
2019-02-15T14:38:23.341Z,10.83
2019-02-15T14:40:55.478Z,10.82
2019-02-15T14:43:27.973Z,10.81
2019-02-15T14:46:00.051Z,10.81
2019-02-15T14:48:31.999Z,10.82
2019-02-15T14:51:03.944Z,10.81
2019-02-15T14:53:35.889Z,10.81
2019-02-15T14:56:07.828Z,10.81
2019-02-15T14:58:39.932Z,10.81
2019-02-15T15:01:12.032Z,10.81
2019-02-15T15:03:43.963Z,10.80
2019-02-15T15:06:15.913Z,10.77
2019-02-15T15:08:48.060Z,10.72
2019-02-15T15:11:20.736Z,10.69
2019-02-15T15:13:52.674Z,10.70
2019-02-15T15:16:25.366Z,10.68
2019-02-15T15:18:57.305Z,10.64
2019-02-15T15:21:29.575Z,10.59
2019-02-15T15:24:01.561Z,10.56
2019-02-15T15:26:33.613Z,10.51
2019-02-15T15:29:05.640Z,10.48
2019-02-15T15:31:37.939Z,10.43
2019-02-15T15:34:12.592Z,10.38
2019-02-15T15:36:44.723Z,10.33
2019-02-15T15:39:16.668Z,10.30
2019-02-15T15:41:48.619Z,10.27
2019-02-15T15:44:20.550Z,10.24
2019-02-15T15:46:52.888Z,10.21
2019-02-15T15:49:24.812Z,10.18
2019-02-15T15:51:56.772Z,10.15
2019-02-15T15:54:28.812Z,10.11
2019-02-15T15:57:00.835Z,10.06
2019-02-15T15:59:32.854Z,10.01
2019-02-15T16:02:05.265Z,9.99
2019-02-15T16:04:37.242Z,9.93
2019-02-15T16:07:09.162Z,9.89
2019-02-15T16:09:41.111Z,9.84
2019-02-15T16:12:13.033Z,9.80
2019-02-15T16:14:45.014Z,9.75
2019-02-15T16:17:17.031Z,9.69
2019-02-15T16:19:49.825Z,9.64
2019-02-15T16:22:21.941Z,9.60
2019-02-15T16:24:53.881Z,9.55
2019-02-15T16:27:25.800Z,9.50
2019-02-15T16:29:57.810Z,9.45
2019-02-15T16:32:30.170Z,9.40
2019-02-15T16:35:02.158Z,9.37
2019-02-15T16:37:34.143Z,9.32
2019-02-15T16:40:13.394Z,9.28
2019-02-15T16:42:45.310Z,9.24
2019-02-15T16:45:17.948Z,9.24
2019-02-15T16:47:49.879Z,9.22
2019-02-15T16:50:21.811Z,9.20
2019-02-15T16:52:53.771Z,9.16
2019-02-15T16:55:25.686Z,9.23
2019-02-15T16:57:58.970Z,9.24
2019-02-15T17:00:30.933Z,9.20
2019-02-15T17:03:04.175Z,9.16
2019-02-15T17:05:36.103Z,9.12
2019-02-15T17:08:08.411Z,9.07
2019-02-15T17:10:40.671Z,9.03
2019-02-15T17:13:12.958Z,8.98
2019-02-15T17:15:44.880Z,8.93
2019-02-15T17:18:16.905Z,8.89
2019-02-15T17:20:49.067Z,8.86
2019-02-15T17:23:21.144Z,8.81
2019-02-15T17:25:53.113Z,8.78
2019-02-15T17:28:25.016Z,8.74
2019-02-15T17:30:57.422Z,8.70
2019-02-15T17:33:29.354Z,8.68
2019-02-15T17:36:01.288Z,8.66
2019-02-15T17:38:33.307Z,8.63
2019-02-15T17:41:05.237Z,8.61
2019-02-15T17:43:37.196Z,8.58
2019-02-15T17:46:09.274Z,8.56
2019-02-15T17:48:41.220Z,8.52
2019-02-15T17:51:13.138Z,8.49
2019-02-15T17:53:45.169Z,8.48
2019-02-15T17:56:17.530Z,8.47
2019-02-15T17:58:49.480Z,8.45
2019-02-15T18:01:21.408Z,8.43
2019-02-15T18:03:53.760Z,8.42
2019-02-15T18:06:25.695Z,8.41
2019-02-15T18:08:57.628Z,8.40
2019-02-15T18:11:29.557Z,8.39
2019-02-15T18:14:01.520Z,8.38
2019-02-15T18:16:33.444Z,8.38
2019-02-15T18:19:10.112Z,8.39
2019-02-15T18:21:39.202Z,8.36
2019-02-15T18:24:11.130Z,8.33
2019-02-15T18:26:43.056Z,8.34
2019-02-15T18:29:14.983Z,8.31
2019-02-15T18:31:47.077Z,8.32
2019-02-15T18:34:19.107Z,8.29
2019-02-15T18:36:51.086Z,8.27
2019-02-15T18:39:22.999Z,8.24
2019-02-15T18:41:56.627Z,8.23
2019-02-15T18:44:28.556Z,8.21
2019-02-15T18:47:00.489Z,8.18
2019-02-15T18:49:32.419Z,8.17
2019-02-15T18:52:04.343Z,8.14
2019-02-15T18:54:36.285Z,8.13
2019-02-15T18:57:08.231Z,8.11
2019-02-15T18:59:40.157Z,8.10
2019-02-15T19:02:12.763Z,8.08
2019-02-15T19:04:44.688Z,8.07
2019-02-15T19:07:16.661Z,8.07
2019-02-15T19:09:48.582Z,8.04
2019-02-15T19:12:20.562Z,8.02
2019-02-15T19:14:52.480Z,8.02
2019-02-15T19:17:24.419Z,8.02
2019-02-15T19:19:56.339Z,8.03
2019-02-15T19:22:28.299Z,8.04
2019-02-15T19:25:00.383Z,8.04
2019-02-15T19:27:32.267Z,8.03
2019-02-15T19:30:07.683Z,8.02
2019-02-15T19:32:39.664Z,8.01
2019-02-15T19:35:11.629Z,8.00
2019-02-15T19:37:43.564Z,7.98
2019-02-15T19:40:19.378Z,7.96
2019-02-15T19:42:56.072Z,7.93
2019-02-15T19:45:28.012Z,7.91
2019-02-15T19:47:59.961Z,7.86
2019-02-15T19:50:31.922Z,7.85
2019-02-15T19:53:03.874Z,7.82
2019-02-15T19:55:35.783Z,7.80
2019-02-15T19:58:07.735Z,7.78
2019-02-15T20:00:39.659Z,7.76
2019-02-15T20:03:11.595Z,7.76
2019-02-15T20:05:44.352Z,7.75
2019-02-15T20:08:16.315Z,7.74
2019-02-15T20:10:48.241Z,7.73
2019-02-15T20:13:20.249Z,7.72
2019-02-15T20:15:52.162Z,7.72
2019-02-15T20:18:24.122Z,7.72
2019-02-15T20:20:56.060Z,7.73
2019-02-15T20:23:27.991Z,7.72
2019-02-15T20:25:59.926Z,7.74
2019-02-15T20:28:32.027Z,7.74
2019-02-15T20:31:04.026Z,7.77
2019-02-15T20:33:35.962Z,7.76
2019-02-15T20:36:07.924Z,7.77
2019-02-15T20:38:39.854Z,7.79
2019-02-15T20:41:11.886Z,7.81
2019-02-15T20:43:44.186Z,7.83
2019-02-15T20:46:16.133Z,7.84
2019-02-15T20:48:48.379Z,7.86
2019-02-15T20:51:20.360Z,7.86
2019-02-15T20:53:52.281Z,7.88
2019-02-15T20:56:24.207Z,7.88
2019-02-15T20:58:56.144Z,7.89
2019-02-15T21:01:28.068Z,7.90
2019-02-15T21:04:00.002Z,7.90
2019-02-15T21:06:32.031Z,7.90
2019-02-15T21:09:05.078Z,7.89
2019-02-15T21:11:37.701Z,7.86
2019-02-15T21:14:09.712Z,7.85
2019-02-15T21:16:41.718Z,7.84
2019-02-15T21:19:13.936Z,7.82
2019-02-15T21:21:45.865Z,7.77
2019-02-15T21:24:17.811Z,7.76
2019-02-15T21:26:49.728Z,7.74
2019-02-15T21:29:21.688Z,7.69
2019-02-15T21:31:53.613Z,7.68
2019-02-15T21:34:25.712Z,7.65
2019-02-15T21:36:57.648Z,7.62
2019-02-15T21:39:29.584Z,7.59
2019-02-15T21:42:01.511Z,7.54
2019-02-15T21:44:33.482Z,7.52
2019-02-15T21:47:05.712Z,7.46
2019-02-15T21:49:38.541Z,7.43
2019-02-15T21:52:10.815Z,7.41
2019-02-15T21:54:42.737Z,7.39
2019-02-15T21:57:14.661Z,7.37
2019-02-15T21:59:46.585Z,7.35
2019-02-15T22:02:18.503Z,7.34
2019-02-15T22:04:50.464Z,7.33
2019-02-15T22:07:23.473Z,7.34
2019-02-15T22:09:55.398Z,7.33
2019-02-15T22:12:27.329Z,7.35
2019-02-15T22:14:59.290Z,7.34
2019-02-15T22:17:31.207Z,7.36
2019-02-15T22:20:03.165Z,7.36
2019-02-15T22:22:35.092Z,7.37
2019-02-15T22:25:08.627Z,7.39
2019-02-15T22:27:40.943Z,7.44
2019-02-15T22:30:18.556Z,7.47
2019-02-15T22:32:50.472Z,7.52
2019-02-15T22:35:22.760Z,7.55
2019-02-15T22:37:54.670Z,7.58
2019-02-15T22:40:29.897Z,7.61
2019-02-15T22:43:18.212Z,7.64
2019-02-15T22:45:50.214Z,7.67
2019-02-15T22:48:22.447Z,7.69
2019-02-15T22:50:54.414Z,7.71
2019-02-15T22:53:26.325Z,7.72
2019-02-15T22:55:58.267Z,7.72
2019-02-15T22:58:30.225Z,7.71
2019-02-15T23:01:06.788Z,7.70
2019-02-15T23:03:38.776Z,7.68
2019-02-15T23:06:10.801Z,7.67
2019-02-15T23:08:42.717Z,7.63
2019-02-15T23:11:14.644Z,7.61
2019-02-15T23:13:46.570Z,7.59
2019-02-15T23:16:18.565Z,7.56
2019-02-15T23:18:50.651Z,7.54
2019-02-15T23:21:22.599Z,7.52
2019-02-15T23:23:54.507Z,7.49
2019-02-15T23:26:26.447Z,7.46
2019-02-15T23:28:58.371Z,7.43
2019-02-15T23:31:30.371Z,7.40
2019-02-15T23:34:02.702Z,7.39
2019-02-15T23:36:34.630Z,7.37
2019-02-15T23:39:08.313Z,7.35
2019-02-15T23:41:40.236Z,7.33
2019-02-15T23:44:12.174Z,7.32
2019-02-15T23:46:44.465Z,7.30
2019-02-15T23:49:16.372Z,7.29
2019-02-15T23:51:48.329Z,7.27
2019-02-15T23:54:20.244Z,7.25
2019-02-15T23:56:52.530Z,7.25
2019-02-15T23:59:24.445Z,7.23
